^^
Calpe Station Historical Data
 
Daily Summary for July 06, 2020 Units:  Metric    English   Both
Daily Weekly Monthly Yearly Custom
  Current: High: Low: Average:
Temperature: 22.1 °C 23.6 °C 22.1 °C 22.9 °C
Dew Point: 17.4 °C 18.9 °C 17.2 °C 17.6 °C
Humidity: 75% 75% 70% 72%
Wind Speed: 1.6km/h 8km/h 0km/h 2km/h
Wind Gust: 4.8km/h 20.9km/h - -
WindEast - - SE
Pressure: 1015.2 hPa 1015.7 hPa 1015.2 hPa -
Precipitation: 0.0 mm      
Historical Graphs
 
 
Tabular Data for July 06, 2020
Time Temperature Dew Point Pressure Wind Wind Speed Wind Gust Humidity Rainfall Rate (Hourly) solar
00:00 23.6 °C 18.9 °C 1015.3 hPa South 8 km/h 20.9 km/h 75% 0.0 mm 0 W/m2
00:05 23.6 °C 18.7 °C 1015.3 hPa South 4.8 km/h 17.7 km/h 74% 0.0 mm 0 W/m2
00:10 23.6 °C 18.4 °C 1015.3 hPa South 4.8 km/h 14.5 km/h 73% 0.0 mm 0 W/m2
00:15 23.6 °C 18.2 °C 1015.3 hPa South 4.8 km/h 14.5 km/h 72% 0.0 mm 0 W/m2
00:20 23.5 °C 17.9 °C 1015.4 hPa SSE 3.2 km/h 12.9 km/h 71% 0.0 mm 0 W/m2
00:25 23.5 °C 18.2 °C 1015.4 hPa SSE 3.2 km/h 8 km/h 72% 0.0 mm 0 W/m2
00:30 23.4 °C 18.3 °C 1015.4 hPa SSE 3.2 km/h 8 km/h 73% 0.0 mm 0 W/m2
00:35 23.4 °C 18.1 °C 1015.5 hPa SSE 3.2 km/h 8 km/h 72% 0.0 mm 0 W/m2
00:40 23.2 °C 17.4 °C 1015.5 hPa SSE 1.6 km/h 8 km/h 70% 0.0 mm 0 W/m2
00:45 23.2 °C 17.4 °C 1015.5 hPa SSE 3.2 km/h 8 km/h 70% 0.0 mm 0 W/m2
00:50 23.1 °C 17.3 °C 1015.6 hPa Calm   4.8 km/h 70% 0.0 mm 0 W/m2
00:55 23.1 °C 17.3 °C 1015.6 hPa South 1.6 km/h 8 km/h 70% 0.0 mm 0 W/m2
01:00 23.1 °C 17.3 °C 1015.7 hPa Calm   1.6 km/h 70% 0.0 mm 0 W/m2
01:05 23.1 °C 17.5 °C 1015.6 hPa South 4.8 km/h 8 km/h 71% 0.0 mm 0 W/m2
01:10 23 °C 17.7 °C 1015.6 hPa Calm   8 km/h 72% 0.0 mm 0 W/m2
01:15 22.9 °C 17.6 °C 1015.6 hPa Calm   1.6 km/h 72% 0.0 mm 0 W/m2
01:20 22.9 °C 17.3 °C 1015.6 hPa Calm   1.6 km/h 71% 0.0 mm 0 W/m2
01:25 22.8 °C 17.2 °C 1015.6 hPa East 3.2 km/h 4.8 km/h 71% 0.0 mm 0 W/m2
01:30 22.8 °C 17.2 °C 1015.6 hPa East 1.6 km/h 1.6 km/h 71% 0.0 mm 0 W/m2
01:35 22.7 °C 17.2 °C 1015.5 hPa East 1.6 km/h 4.8 km/h 71% 0.0 mm 0 W/m2
01:40 22.7 °C 17.3 °C 1015.5 hPa East 1.6 km/h 4.8 km/h 72% 0.0 mm 0 W/m2
01:45 22.7 °C 17.3 °C 1015.5 hPa Calm   4.8 km/h 72% 0.0 mm 0 W/m2
01:50 22.6 °C 17.5 °C 1015.4 hPa East 1.6 km/h 4.8 km/h 73% 0.0 mm 0 W/m2
01:55 22.6 °C 17.4 °C 1015.4 hPa Calm   1.6 km/h 73% 0.0 mm 0 W/m2
02:00 22.5 °C 17.4 °C 1015.4 hPa Calm   1.6 km/h 73% 0.0 mm 0 W/m2
02:05 22.4 °C 17.4 °C 1015.3 hPa East 1.6 km/h 4.8 km/h 73% 0.0 mm 0 W/m2
02:10 22.4 °C 17.3 °C 1015.3 hPa East 1.6 km/h 1.6 km/h 73% 0.0 mm 0 W/m2
02:15 22.3 °C 17.4 °C 1015.2 hPa East 1.6 km/h 4.8 km/h 74% 0.0 mm 0 W/m2
02:20 22.2 °C 17.4 °C 1015.3 hPa Calm   4.8 km/h 74% 0.0 mm 0 W/m2
02:25 22.2 °C 17.3 °C 1015.2 hPa Calm   4.8 km/h 74% 0.0 mm 0 W/m2
02:30 22.1 °C 17.5 °C 1015.2 hPa Calm   4.8 km/h 75% 0.0 mm 0 W/m2
02:35 22.1 °C 17.4 °C 1015.2 hPa East 1.6 km/h 4.8 km/h 75% 0.0 mm 0 W/m2
Juneau County Weather
Compliments of Weather Underground - 2 mb